Hakuhomaru — JJ4011 — position and weather

sailwx.info

Track history (hours):
 
Tides and Currents Weather Stations Pressure Air Temp Water Temp Dewpoint Dewpoint Depression Visibility Wind Speed Wind Dir Waves Ship Positions

Hakuhomaru

Last reported at 2016-Jul-27 08:33 UTC. Time now 2016-Jul-27 15:21 UTC.
Position N 34°41' E 135°14'.

Length 38 m; draft 3.3 m.

Type: Tug. MMSI: 431401584.

Date/timePositionNaut miles runAvg speedWind from/ knotsBaromVisibWave heightAir tempDewpointWater temp
2016-Jul-27 08:33N 34°41' E 135°14'1 0.8
2016-Jul-27 07:33N 34°40' E 135°15'1 0.6
2016-Jul-27 06:33N 34°40' E 135°15'2 2.2
2016-Jul-27 05:33N 34°42' E 135°16'3 3.3
2016-Jul-27 04:33N 34°41' E 135°12'0 0.0
2016-Jul-27 03:33N 34°41' E 135°12'0 0.0
2016-Jul-27 02:33N 34°41' E 135°12'0 0.0
2016-Jul-27 01:33N 34°41' E 135°12'0 0.0
2016-Jul-27 00:33N 34°41' E 135°12'0 0.1
2016-Jul-26 23:33N 34°41' E 135°12'3 3.4
2016-Jul-26 22:33N 34°39' E 135°16'3 3.3
2016-Jul-26 21:33N 34°41' E 135°12'0 0.0
2016-Jul-26 09:15N 34°41' E 135°12'2 3.5
2016-Jul-26 08:33N 34°41' E 135°15'2 2.1
2016-Jul-26 07:33N 34°41' E 135°13'2 1.8
2016-Jul-26 06:33N 34°42' E 135°15'2 2.4
2016-Jul-26 05:33N 34°41' E 135°18'5 4.7
2016-Jul-26 04:33N 34°41' E 135°12'0 0.1
2016-Jul-26 03:33N 34°41' E 135°12'0 0.0
2016-Jul-26 02:33N 34°41' E 135°12'0 0.0
2016-Jul-26 01:33N 34°41' E 135°12'0 0.0
2016-Jul-26 00:33N 34°41' E 135°12'1 0.6
2016-Jul-25 23:33N 34°41' E 135°13'2 2.1
2016-Jul-25 22:33N 34°40' E 135°15'2 1.8
2016-Jul-25 21:33N 34°41' E 135°13'1 0.8
2016-Jul-25 20:33N 34°41' E 135°12'0 0.0
2016-Jul-25 06:33N 34°41' E 135°12'0 0.0
2016-Jul-25 05:33N 34°41' E 135°12'0 0.0
2016-Jul-25 04:33N 34°41' E 135°12'0 0.0
2016-Jul-25 03:33N 34°41' E 135°12'0 0.0
2016-Jul-25 02:33N 34°41' E 135°12'0 0.0
2016-Jul-25 01:33N 34°41' E 135°12'2 2.4
2016-Jul-25 00:33N 34°42' E 135°15'1 0.8
2016-Jul-24 23:33N 34°41' E 135°14'1 1.2
2016-Jul-24 22:33N 34°42' E 135°16'2 1.8
2016-Jul-24 21:33N 34°40' E 135°15'2 2.1
2016-Jul-24 20:33N 34°41' E 135°12'  
2016-Jul-22 15:32N 34°41' E 135°12'2 1.8
2016-Jul-22 14:33N 34°40' E 135°14'1 0.6
2016-Jul-22 13:33N 34°40' E 135°14'0 0.0
2016-Jul-22 12:33N 34°40' E 135°14'0 0.0
2016-Jul-22 11:33N 34°40' E 135°14'0 0.0
2016-Jul-22 10:33N 34°40' E 135°14'3 2.8
2016-Jul-22 09:33N 34°39' E 135°10'2 2.4
2016-Jul-22 08:33N 34°41' E 135°12'0 0.0
2016-Jul-22 07:33N 34°41' E 135°12'0 0.0
2016-Jul-22 05:33N 34°41' E 135°12'0 0.0
2016-Jul-22 04:33N 34°41' E 135°12'0 0.0
2016-Jul-22 03:33N 34°41' E 135°12'0 0.0
2016-Jul-22 02:33N 34°41' E 135°12'0 0.0
2016-Jul-22 01:33N 34°41' E 135°12'4 4.2
2016-Jul-22 00:33N 34°41' E 135°17'1 1.2
2016-Jul-21 23:33N 34°40' E 135°18'1 1.2
2016-Jul-21 22:33N 34°41' E 135°17'3 2.9
2016-Jul-21 21:33N 34°41' E 135°14'1 1.5
2016-Jul-21 20:33N 34°41' E 135°12'0 0.0
2016-Jul-21 07:14N 34°41' E 135°12'0 0.0
2016-Jul-21 06:33N 34°41' E 135°12'0 0.0
2016-Jul-21 05:33N 34°41' E 135°12'0 0.0
2016-Jul-21 04:33N 34°41' E 135°12'0 0.0
2016-Jul-21 03:33N 34°41' E 135°12'0 0.0
2016-Jul-20 21:33N 34°41' E 135°12'1 1.0
2016-Jul-20 20:33N 34°40' E 135°13'0 0.0
2016-Jul-20 19:33N 34°40' E 135°13'0 0.0
2016-Jul-20 18:33N 34°40' E 135°13'0 0.0
2016-Jul-20 17:33N 34°40' E 135°13'0 0.0
2016-Jul-20 16:33N 34°40' E 135°13'3 3.2
2016-Jul-20 15:33N 34°41' E 135°17'4 4.0
2016-Jul-20 14:33N 34°41' E 135°12'0 0.0
2016-Jul-20 13:33N 34°41' E 135°12'0 0.0
2016-Jul-20 12:33N 34°41' E 135°12'0 0.0
2016-Jul-20 11:33N 34°41' E 135°12'0 0.0
2016-Jul-20 10:33N 34°41' E 135°12'0 0.0
2016-Jul-20 09:33N 34°41' E 135°12'2 1.7
2016-Jul-20 08:33N 34°40' E 135°14'1 1.4
2016-Jul-20 07:32N 34°39' E 135°15'0 0.4
2016-Jul-20 06:34N 34°39' E 135°15'0 0.0
2016-Jul-20 05:33N 34°39' E 135°15'0 0.0
2016-Jul-20 04:33N 34°39' E 135°15'3 3.0
2016-Jul-20 03:33N 34°41' E 135°17'1 0.8
2016-Jul-20 02:33N 34°41' E 135°17'0 0.3
2016-Jul-20 01:33N 34°41' E 135°17'0 0.0
2016-Jul-20 00:33N 34°41' E 135°17'2 2.3
2016-Jul-19 23:33N 34°40' E 135°14'1 1.2
2016-Jul-19 22:33N 34°39' E 135°15'3 2.9
2016-Jul-19 21:33N 34°40' E 135°12'1 0.7
2016-Jul-19 20:33N 34°41' E 135°12'0 0.0
2016-Jul-19 07:33N 34°40' E 135°12'2 1.9
2016-Jul-19 06:33N 34°40' E 135°14'2 0.9
2016-Jul-19 04:33N 34°41' E 135°12'0 0.0
2016-Jul-19 03:33N 34°41' E 135°12'0 0.0
2016-Jul-19 02:33N 34°41' E 135°12'0 0.0
2016-Jul-19 01:33N 34°41' E 135°12'1 1.5
2016-Jul-19 00:33N 34°41' E 135°14'2 1.5
2016-Jul-18 23:33N 34°40' E 135°15'2 2.1
2016-Jul-18 22:33N 34°41' E 135°12'0 0.2
2016-Jul-18 21:33N 34°41' E 135°12'0 0.0
2016-Jul-18 20:33N 34°41' E 135°12'2 0.1
2016-Jul-18 06:33N 34°41' E 135°14'1 1.0
2016-Jul-18 05:33N 34°40' E 135°15'2 2.2
2016-Jul-18 04:33N 34°41' E 135°12'0 0.0
2016-Jul-18 03:33N 34°41' E 135°12'0 0.0
2016-Jul-18 02:32N 34°41' E 135°12'0 0.0
2016-Jul-18 01:33N 34°41' E 135°12'0 0.0
2016-Jul-18 00:33N 34°41' E 135°12'0 0.0
2016-Jul-17 23:33N 34°41' E 135°12'2 2.3
2016-Jul-17 22:33N 34°39' E 135°15'2 1.6
2016-Jul-17 21:33N 34°39' E 135°13'2 1.6
2016-Jul-17 20:33N 34°41' E 135°12'0 0.0
2016-Jul-17 10:21N 34°41' E 135°12'2 2.9
2016-Jul-17 09:33N 34°40' E 135°15'  
Track history (hours):
 
Tides and Currents Weather Stations Pressure Air Temp Water Temp Dewpoint Dewpoint Depression Visibility Wind Speed Wind Dir Waves Ship Positions

Hakuhomaru

Last reported at 2016-Jul-27 08:33 UTC. Time now 2016-Jul-27 15:21 UTC.
Position N 34°41' E 135°14'.

Length 38 m; draft 3.3 m.

Type: Tug. MMSI: 431401584.

Date/timePositionNaut miles runAvg speedWind from/ knotsBaromVisibWave heightAir tempDewpointWater temp
2016-Jul-27 08:33N 34°41' E 135°14'1 0.8
2016-Jul-27 07:33N 34°40' E 135°15'1 0.6
2016-Jul-27 06:33N 34°40' E 135°15'2 2.2
2016-Jul-27 05:33N 34°42' E 135°16'3 3.3
2016-Jul-27 04:33N 34°41' E 135°12'0 0.0
2016-Jul-27 03:33N 34°41' E 135°12'0 0.0
2016-Jul-27 02:33N 34°41' E 135°12'0 0.0
2016-Jul-27 01:33N 34°41' E 135°12'0 0.0
2016-Jul-27 00:33N 34°41' E 135°12'0 0.1
2016-Jul-26 23:33N 34°41' E 135°12'3 3.4
2016-Jul-26 22:33N 34°39' E 135°16'3 3.3
2016-Jul-26 21:33N 34°41' E 135°12'0 0.0
2016-Jul-26 09:15N 34°41' E 135°12'2 3.5
2016-Jul-26 08:33N 34°41' E 135°15'2 2.1
2016-Jul-26 07:33N 34°41' E 135°13'2 1.8
2016-Jul-26 06:33N 34°42' E 135°15'2 2.4
2016-Jul-26 05:33N 34°41' E 135°18'5 4.7
2016-Jul-26 04:33N 34°41' E 135°12'0 0.1
2016-Jul-26 03:33N 34°41' E 135°12'0 0.0
2016-Jul-26 02:33N 34°41' E 135°12'0 0.0
2016-Jul-26 01:33N 34°41' E 135°12'0 0.0
2016-Jul-26 00:33N 34°41' E 135°12'1 0.6
2016-Jul-25 23:33N 34°41' E 135°13'2 2.1
2016-Jul-25 22:33N 34°40' E 135°15'2 1.8
2016-Jul-25 21:33N 34°41' E 135°13'1 0.8
2016-Jul-25 20:33N 34°41' E 135°12'0 0.0
2016-Jul-25 06:33N 34°41' E 135°12'0 0.0
2016-Jul-25 05:33N 34°41' E 135°12'0 0.0
2016-Jul-25 04:33N 34°41' E 135°12'0 0.0
2016-Jul-25 03:33N 34°41' E 135°12'0 0.0
2016-Jul-25 02:33N 34°41' E 135°12'0 0.0
2016-Jul-25 01:33N 34°41' E 135°12'2 2.4
2016-Jul-25 00:33N 34°42' E 135°15'1 0.8
2016-Jul-24 23:33N 34°41' E 135°14'1 1.2
2016-Jul-24 22:33N 34°42' E 135°16'2 1.8
2016-Jul-24 21:33N 34°40' E 135°15'2 2.1
2016-Jul-24 20:33N 34°41' E 135°12'  
2016-Jul-22 15:32N 34°41' E 135°12'2 1.8
2016-Jul-22 14:33N 34°40' E 135°14'1 0.6
2016-Jul-22 13:33N 34°40' E 135°14'0 0.0
2016-Jul-22 12:33N 34°40' E 135°14'0 0.0
2016-Jul-22 11:33N 34°40' E 135°14'0 0.0
2016-Jul-22 10:33N 34°40' E 135°14'3 2.8
2016-Jul-22 09:33N 34°39' E 135°10'2 2.4
2016-Jul-22 08:33N 34°41' E 135°12'0 0.0
2016-Jul-22 07:33N 34°41' E 135°12'0 0.0
2016-Jul-22 05:33N 34°41' E 135°12'0 0.0
2016-Jul-22 04:33N 34°41' E 135°12'0 0.0
2016-Jul-22 03:33N 34°41' E 135°12'0 0.0
2016-Jul-22 02:33N 34°41' E 135°12'0 0.0
2016-Jul-22 01:33N 34°41' E 135°12'4 4.2
2016-Jul-22 00:33N 34°41' E 135°17'1 1.2
2016-Jul-21 23:33N 34°40' E 135°18'1 1.2
2016-Jul-21 22:33N 34°41' E 135°17'3 2.9
2016-Jul-21 21:33N 34°41' E 135°14'1 1.5
2016-Jul-21 20:33N 34°41' E 135°12'0 0.0
2016-Jul-21 07:14N 34°41' E 135°12'0 0.0
2016-Jul-21 06:33N 34°41' E 135°12'0 0.0
2016-Jul-21 05:33N 34°41' E 135°12'0 0.0
2016-Jul-21 04:33N 34°41' E 135°12'0 0.0
2016-Jul-21 03:33N 34°41' E 135°12'0 0.0
2016-Jul-20 21:33N 34°41' E 135°12'1 1.0
2016-Jul-20 20:33N 34°40' E 135°13'0 0.0
2016-Jul-20 19:33N 34°40' E 135°13'0 0.0
2016-Jul-20 18:33N 34°40' E 135°13'0 0.0
2016-Jul-20 17:33N 34°40' E 135°13'0 0.0
2016-Jul-20 16:33N 34°40' E 135°13'3 3.2
2016-Jul-20 15:33N 34°41' E 135°17'4 4.0
2016-Jul-20 14:33N 34°41' E 135°12'0 0.0
2016-Jul-20 13:33N 34°41' E 135°12'0 0.0
2016-Jul-20 12:33N 34°41' E 135°12'0 0.0
2016-Jul-20 11:33N 34°41' E 135°12'0 0.0
2016-Jul-20 10:33N 34°41' E 135°12'0 0.0
2016-Jul-20 09:33N 34°41' E 135°12'2 1.7
2016-Jul-20 08:33N 34°40' E 135°14'1 1.4
2016-Jul-20 07:32N 34°39' E 135°15'0 0.4
2016-Jul-20 06:34N 34°39' E 135°15'0 0.0
2016-Jul-20 05:33N 34°39' E 135°15'0 0.0
2016-Jul-20 04:33N 34°39' E 135°15'3 3.0
2016-Jul-20 03:33N 34°41' E 135°17'1 0.8
2016-Jul-20 02:33N 34°41' E 135°17'0 0.3
2016-Jul-20 01:33N 34°41' E 135°17'0 0.0
2016-Jul-20 00:33N 34°41' E 135°17'2 2.3
2016-Jul-19 23:33N 34°40' E 135°14'1 1.2
2016-Jul-19 22:33N 34°39' E 135°15'3 2.9
2016-Jul-19 21:33N 34°40' E 135°12'1 0.7
2016-Jul-19 20:33N 34°41' E 135°12'0 0.0
2016-Jul-19 07:33N 34°40' E 135°12'2 1.9
2016-Jul-19 06:33N 34°40' E 135°14'2 0.9
2016-Jul-19 04:33N 34°41' E 135°12'0 0.0
2016-Jul-19 03:33N 34°41' E 135°12'0 0.0
2016-Jul-19 02:33N 34°41' E 135°12'0 0.0
2016-Jul-19 01:33N 34°41' E 135°12'1 1.5
2016-Jul-19 00:33N 34°41' E 135°14'2 1.5
2016-Jul-18 23:33N 34°40' E 135°15'2 2.1
2016-Jul-18 22:33N 34°41' E 135°12'0 0.2
2016-Jul-18 21:33N 34°41' E 135°12'0 0.0
2016-Jul-18 20:33N 34°41' E 135°12'2 0.1
2016-Jul-18 06:33N 34°41' E 135°14'1 1.0
2016-Jul-18 05:33N 34°40' E 135°15'2 2.2
2016-Jul-18 04:33N 34°41' E 135°12'0 0.0
2016-Jul-18 03:33N 34°41' E 135°12'0 0.0
2016-Jul-18 02:32N 34°41' E 135°12'0 0.0
2016-Jul-18 01:33N 34°41' E 135°12'0 0.0
2016-Jul-18 00:33N 34°41' E 135°12'0 0.0
2016-Jul-17 23:33N 34°41' E 135°12'2 2.3
2016-Jul-17 22:33N 34°39' E 135°15'2 1.6
2016-Jul-17 21:33N 34°39' E 135°13'2 1.6
2016-Jul-17 20:33N 34°41' E 135°12'0 0.0
2016-Jul-17 10:21N 34°41' E 135°12'2 2.9
2016-Jul-17 09:33N 34°40' E 135°15'  

Dump ship's entire track history